sensor_id;sensor_type;location;lat;lon;timestamp;pressure;altitude;pressure_sealevel;temperature;humidity
31337;BME280;22846;42.654;23.314;2023-06-26T00:01:14;94345.59;;;27.67;52.25
31337;BME280;22846;42.654;23.314;2023-06-26T00:03:40;94346.06;;;27.65;52.25
31337;BME280;22846;42.654;23.314;2023-06-26T00:06:05;94343.63;;;27.67;52.14
31337;BME280;22846;42.654;23.314;2023-06-26T00:08:30;94348.34;;;27.67;52.00
31337;BME280;22846;42.654;23.314;2023-06-26T00:10:56;94344.84;;;27.66;52.15
31337;BME280;22846;42.654;23.314;2023-06-26T00:13:22;94339.34;;;27.66;52.29
31337;BME280;22846;42.654;23.314;2023-06-26T00:15:48;94343.63;;;27.67;52.38
31337;BME280;22846;42.654;23.314;2023-06-26T00:18:13;94339.34;;;27.66;52.06
31337;BME280;22846;42.654;23.314;2023-06-26T00:20:39;94344.84;;;27.66;52.24
31337;BME280;22846;42.654;23.314;2023-06-26T00:23:04;94344.84;;;27.66;52.26
31337;BME280;22846;42.654;23.314;2023-06-26T00:25:33;94339.34;;;27.66;52.34
31337;BME280;22846;42.654;23.314;2023-06-26T00:27:58;94328.38;;;27.57;52.24
31337;BME280;22846;42.654;23.314;2023-06-26T00:30:23;94340.56;;;27.65;52.15
31337;BME280;22846;42.654;23.314;2023-06-26T00:32:49;94331.84;;;27.67;52.32
31337;BME280;22846;42.654;23.314;2023-06-26T00:35:15;94328.38;;;27.66;52.48
31337;BME280;22846;42.654;23.314;2023-06-26T00:37:41;94327.59;;;27.66;52.43
31337;BME280;22846;42.654;23.314;2023-06-26T00:40:06;94328.38;;;27.66;52.35
31337;BME280;22846;42.654;23.314;2023-06-26T00:42:32;94333.84;;;27.66;52.40
31337;BME280;22846;42.654;23.314;2023-06-26T00:44:58;94330.63;;;27.68;52.50
31337;BME280;22846;42.654;23.314;2023-06-26T00:47:23;94331.13;;;27.66;52.58
31337;BME280;22846;42.654;23.314;2023-06-26T00:49:50;94325.63;;;27.66;52.51
31337;BME280;22846;42.654;23.314;2023-06-26T00:52:16;94324.41;;;27.67;52.37
31337;BME280;22846;42.654;23.314;2023-06-26T00:54:42;94327.16;;;27.67;52.44
31337;BME280;22846;42.654;23.314;2023-06-26T00:57:08;94312.34;;;27.65;52.43
31337;BME280;22846;42.654;23.314;2023-06-26T00:59:34;94315.38;;;27.67;52.28
31337;BME280;22846;42.654;23.314;2023-06-26T01:02:00;94323.63;;;27.67;52.15
31337;BME280;22846;42.654;23.314;2023-06-26T01:04:25;94315.38;;;27.67;52.32
31337;BME280;22846;42.654;23.314;2023-06-26T01:06:53;94314.63;;;27.66;52.34
31337;BME280;22846;42.654;23.314;2023-06-26T01:09:20;94300.91;;;27.66;52.20
31337;BME280;22846;42.654;23.314;2023-06-26T01:11:46;94311.13;;;27.66;52.25
31337;BME280;22846;42.654;23.314;2023-06-26T01:14:12;94304.41;;;27.67;52.55
31337;BME280;22846;42.654;23.314;2023-06-26T01:16:39;94298.16;;;27.66;52.33
31337;BME280;22846;42.654;23.314;2023-06-26T01:19:20;94303.66;;;27.66;52.71
31337;BME280;22846;42.654;23.314;2023-06-26T01:21:51;94287.94;;;27.67;52.39
31337;BME280;22846;42.654;23.314;2023-06-26T01:24:22;94296.94;;;27.67;52.26
31337;BME280;22846;42.654;23.314;2023-06-26T01:26:53;94280.91;;;27.66;52.26
31337;BME280;22846;42.654;23.314;2023-06-26T01:29:19;94291.16;;;27.65;52.28
31337;BME280;22846;42.654;23.314;2023-06-26T01:31:47;94275.00;;;27.58;52.04
31337;BME280;22846;42.654;23.314;2023-06-26T01:34:16;94281.38;;;27.64;52.35
31337;BME280;22846;42.654;23.314;2023-06-26T01:36:42;94279.38;;;27.65;52.26
31337;BME280;22846;42.654;23.314;2023-06-26T01:39:07;94276.66;;;27.65;52.37
31337;BME280;22846;42.654;23.314;2023-06-26T01:41:34;94275.91;;;27.64;52.30
31337;BME280;22846;42.654;23.314;2023-06-26T01:44:28;94285.34;;;27.63;52.45
31337;BME280;22846;42.654;23.314;2023-06-26T01:47:04;94277.91;;;27.64;52.35
31337;BME280;22846;42.654;23.314;2023-06-26T01:52:29;94270.88;;;27.63;52.19
31337;BME280;22846;42.654;23.314;2023-06-26T01:55:20;94267.34;;;27.62;52.40
31337;BME280;22846;42.654;23.314;2023-06-26T01:57:47;94267.34;;;27.62;52.29
31337;BME280;22846;42.654;23.314;2023-06-26T02:00:15;94267.81;;;27.61;52.36
31337;BME280;22846;42.654;23.314;2023-06-26T02:02:43;94275.16;;;27.64;52.22
31337;BME280;22846;42.654;23.314;2023-06-26T02:05:08;94266.91;;;27.64;52.46
31337;BME280;22846;42.654;23.314;2023-06-26T02:07:34;94276.38;;;27.63;52.15
31337;BME280;22846;42.654;23.314;2023-06-26T02:09:59;94260.66;;;27.63;52.15
31337;BME280;22846;42.654;23.314;2023-06-26T02:12:25;94262.66;;;27.63;52.06
31337;BME280;22846;42.654;23.314;2023-06-26T02:14:50;94270.09;;;27.62;52.07
31337;BME280;22846;42.654;23.314;2023-06-26T02:17:16;94266.63;;;27.62;52.31
31337;BME280;22846;42.654;23.314;2023-06-26T02:19:41;94268.56;;;27.61;51.85
31337;BME280;22846;42.654;23.314;2023-06-26T02:22:15;94274.84;;;27.62;52.26
31337;BME280;22846;42.654;23.314;2023-06-26T02:24:41;94270.09;;;27.62;52.18
31337;BME280;22846;42.654;23.314;2023-06-26T02:27:07;94270.09;;;27.62;52.16
31337;BME280;22846;42.654;23.314;2023-06-26T02:29:33;94272.84;;;27.62;52.05
31337;BME280;22846;42.654;23.314;2023-06-26T02:31:58;94281.09;;;27.62;52.10
31337;BME280;22846;42.654;23.314;2023-06-26T02:34:24;94276.78;;;27.61;52.04
31337;BME280;22846;42.654;23.314;2023-06-26T02:36:49;94282.28;;;27.61;52.17
31337;BME280;22846;42.654;23.314;2023-06-26T02:39:14;94274.03;;;27.61;52.23
31337;BME280;22846;42.654;23.314;2023-06-26T02:41:40;94281.09;;;27.62;52.18
31337;BME280;22846;42.654;23.314;2023-06-26T02:44:05;94286.56;;;27.62;52.16
31337;BME280;22846;42.654;23.314;2023-06-26T02:46:32;94267.38;;;27.53;52.14
31337;BME280;22846;42.654;23.314;2023-06-26T02:48:58;94274.84;;;27.62;52.08
31337;BME280;22846;42.654;23.314;2023-06-26T02:51:24;94283.09;;;27.62;52.23
31337;BME280;22846;42.654;23.314;2023-06-26T02:53:49;94279.53;;;27.61;51.91
31337;BME280;22846;42.654;23.314;2023-06-26T02:56:15;94278.78;;;27.61;52.36
31337;BME280;22846;42.654;23.314;2023-06-26T02:58:40;94267.81;;;27.61;52.04
31337;BME280;22846;42.654;23.314;2023-06-26T03:01:05;94283.09;;;27.62;52.45
31337;BME280;22846;42.654;23.314;2023-06-26T03:03:31;94280.75;;;27.60;52.10
31337;BME280;22846;42.654;23.314;2023-06-26T03:06:05;94290.50;;;27.61;52.12
31337;BME280;22846;42.654;23.314;2023-06-26T03:08:30;94287.03;;;27.61;52.31
31337;BME280;22846;42.654;23.314;2023-06-26T03:10:57;94283.50;;;27.60;52.17
31337;BME280;22846;42.654;23.314;2023-06-26T03:13:22;94285.50;;;27.60;52.16
31337;BME280;22846;42.654;23.314;2023-06-26T03:15:47;94289.00;;;27.60;52.09
31337;BME280;22846;42.654;23.314;2023-06-26T03:18:13;94291.75;;;27.60;52.01
31337;BME280;22846;42.654;23.314;2023-06-26T03:20:38;94288.25;;;27.60;52.11
31337;BME280;22846;42.654;23.314;2023-06-26T03:23:04;94285.97;;;27.58;52.16
31337;BME280;22846;42.654;23.314;2023-06-26T03:25:29;94285.50;;;27.60;51.80
31337;BME280;22846;42.654;23.314;2023-06-26T03:27:54;94287.50;;;27.59;52.05
31337;BME280;22846;42.654;23.314;2023-06-26T03:30:20;94282.75;;;27.60;51.84
31337;BME280;22846;42.654;23.314;2023-06-26T03:32:45;94286.25;;;27.60;51.77
31337;BME280;22846;42.654;23.314;2023-06-26T03:35:10;94281.22;;;27.59;51.95
31337;BME280;22846;42.654;23.314;2023-06-26T03:37:36;94287.50;;;27.59;52.09
31337;BME280;22846;42.654;23.314;2023-06-26T03:40:01;94290.25;;;27.59;52.02
31337;BME280;22846;42.654;23.314;2023-06-26T03:42:29;94294.47;;;27.60;51.92
31337;BME280;22846;42.654;23.314;2023-06-26T03:44:55;94292.22;;;27.59;51.97
31337;BME280;22846;42.654;23.314;2023-06-26T03:47:20;94290.25;;;27.59;51.95
31337;BME280;22846;42.654;23.314;2023-06-26T03:49:45;94300.75;;;27.61;52.02
31337;BME280;22846;42.654;23.314;2023-06-26T03:52:11;94294.47;;;27.60;51.83
31337;BME280;22846;42.654;23.314;2023-06-26T03:54:36;94296.00;;;27.61;51.95
31337;BME280;22846;42.654;23.314;2023-06-26T03:57:02;94293.25;;;27.61;51.91
31337;BME280;22846;42.654;23.314;2023-06-26T03:59:27;94289.78;;;27.61;51.97
31337;BME280;22846;42.654;23.314;2023-06-26T04:01:52;94290.50;;;27.61;52.01
31337;BME280;22846;42.654;23.314;2023-06-26T04:04:18;94296.81;;;27.62;51.96
31337;BME280;22846;42.654;23.314;2023-06-26T04:06:43;94290.50;;;27.61;52.04
31337;BME280;22846;42.654;23.314;2023-06-26T04:09:09;94283.84;;;27.62;51.89
31337;BME280;22846;42.654;23.314;2023-06-26T04:11:34;94292.06;;;27.62;51.92
31337;BME280;22846;42.654;23.314;2023-06-26T04:14:00;94289.31;;;27.62;51.99
31337;BME280;22846;42.654;23.314;2023-06-26T04:16:25;94286.25;;;27.60;51.62
31337;BME280;22846;42.654;23.314;2023-06-26T04:18:51;94284.59;;;27.63;51.85
31337;BME280;22846;42.654;23.314;2023-06-26T04:21:17;94288.88;;;27.64;51.78
31337;BME280;22846;42.654;23.314;2023-06-26T04:23:43;94290.38;;;27.65;51.93
31337;BME280;22846;42.654;23.314;2023-06-26T04:26:08;94279.72;;;27.58;52.02
31337;BME280;22846;42.654;23.314;2023-06-26T04:28:34;94288.88;;;27.64;51.74
31337;BME280;22846;42.654;23.314;2023-06-26T04:31:01;94296.94;;;27.67;51.90
31337;BME280;22846;42.654;23.314;2023-06-26T04:33:28;94288.69;;;27.67;51.99
31337;BME280;22846;42.654;23.314;2023-06-26T04:35:54;94284.75;;;27.59;51.71
31337;BME280;22846;42.654;23.314;2023-06-26T04:38:19;94291.72;;;27.69;51.97
31337;BME280;22846;42.654;23.314;2023-06-26T04:40:45;94300.72;;;27.70;51.89
31337;BME280;22846;42.654;23.314;2023-06-26T04:43:11;94304.22;;;27.70;51.96
31337;BME280;22846;42.654;23.314;2023-06-26T04:45:36;94299.94;;;27.69;52.17
31337;BME280;22846;42.654;23.314;2023-06-26T04:48:02;94303.78;;;27.72;51.97
31337;BME280;22846;42.654;23.314;2023-06-26T04:50:28;94310.03;;;27.72;52.16
31337;BME280;22846;42.654;23.314;2023-06-26T04:52:55;94303.31;;;27.73;51.89
31337;BME280;22846;42.654;23.314;2023-06-26T04:55:21;94296.59;;;27.74;51.96
31337;BME280;22846;42.654;23.314;2023-06-26T04:57:49;94295.38;;;27.75;52.39
31337;BME280;22846;42.654;23.314;2023-06-26T05:00:15;94284.25;;;27.70;52.05
31337;BME280;22846;42.654;23.314;2023-06-26T05:02:40;94292.91;;;27.77;52.85
31337;BME280;22846;42.654;23.314;2023-06-26T05:05:06;94297.47;;;27.80;53.14
31337;BME280;22846;42.654;23.314;2023-06-26T05:07:31;94300.97;;;27.81;53.62
31337;BME280;22846;42.654;23.314;2023-06-26T05:09:56;94308.28;;;27.84;54.34
31337;BME280;22846;42.654;23.314;2023-06-26T05:12:22;94300.81;;;27.84;53.83
31337;BME280;22846;42.654;23.314;2023-06-26T05:14:47;94311.31;;;27.86;52.93
31337;BME280;22846;42.654;23.314;2023-06-26T05:17:16;94311.31;;;27.86;52.90
31337;BME280;22846;42.654;23.314;2023-06-26T05:19:41;94317.28;;;27.84;53.30
31337;BME280;22846;42.654;23.314;2023-06-26T05:22:07;94313.00;;;27.83;53.26
31337;BME280;22846;42.654;23.314;2023-06-26T05:24:37;94321.56;;;27.85;52.92
31337;BME280;22846;42.654;23.314;2023-06-26T05:27:03;94319.56;;;27.86;53.26
31337;BME280;22846;42.654;23.314;2023-06-26T05:29:31;94314.81;;;27.86;53.43
31337;BME280;22846;42.654;23.314;2023-06-26T05:31:57;94324.56;;;27.87;52.79
31337;BME280;22846;42.654;23.314;2023-06-26T05:34:23;94326.88;;;27.89;53.25
31337;BME280;22846;42.654;23.314;2023-06-26T05:36:58;94326.88;;;27.89;52.95
31337;BME280;22846;42.654;23.314;2023-06-26T05:39:24;94323.66;;;27.90;52.93
31337;BME280;22846;42.654;23.314;2023-06-26T05:41:50;94324.88;;;27.89;52.40
31337;BME280;22846;42.654;23.314;2023-06-26T05:44:16;94326.09;;;27.88;52.70
31337;BME280;22846;42.654;23.314;2023-06-26T05:46:42;94325.16;;;27.91;52.58
31337;BME280;22846;42.654;23.314;2023-06-26T05:49:07;94327.91;;;27.91;52.67
31337;BME280;22846;42.654;23.314;2023-06-26T05:51:33;94320.16;;;27.90;52.51
31337;BME280;22846;42.654;23.314;2023-06-26T05:53:58;94331.13;;;27.90;51.76
31337;BME280;22846;42.654;23.314;2023-06-26T05:56:24;94327.63;;;27.89;51.99
31337;BME280;22846;42.654;23.314;2023-06-26T05:58:50;94336.63;;;27.90;51.71
31337;BME280;22846;42.654;23.314;2023-06-26T06:01:16;94328.41;;;27.90;52.35
31337;BME280;22846;42.654;23.314;2023-06-26T06:03:41;94335.38;;;27.91;52.66
31337;BME280;22846;42.654;23.314;2023-06-26T06:06:07;94331.41;;;27.92;52.79
31337;BME280;22846;42.654;23.314;2023-06-26T06:08:32;94332.94;;;27.93;52.51
31337;BME280;22846;42.654;23.314;2023-06-26T06:10:59;94334.47;;;27.94;52.96
31337;BME280;22846;42.654;23.314;2023-06-26T06:13:25;94327.75;;;27.95;53.47
31337;BME280;22846;42.654;23.314;2023-06-26T06:15:50;94334.28;;;27.97;53.45
31337;BME280;22846;42.654;23.314;2023-06-26T06:18:15;94333.84;;;27.99;53.33
31337;BME280;22846;42.654;23.314;2023-06-26T06:20:41;94326.34;;;27.99;53.30
31337;BME280;22846;42.654;23.314;2023-06-26T06:23:06;94332.13;;;28.01;53.52
31337;BME280;22846;42.654;23.314;2023-06-26T06:25:32;94326.63;;;28.01;53.42
31337;BME280;22846;42.654;23.314;2023-06-26T06:27:57;94328.44;;;28.04;53.27
31337;BME280;22846;42.654;23.314;2023-06-26T06:30:23;94320.19;;;28.04;53.37
31337;BME280;22846;42.654;23.314;2023-06-26T06:32:48;94329.94;;;28.05;53.42
31337;BME280;22846;42.654;23.314;2023-06-26T06:35:17;94325.25;;;28.06;53.29
31337;BME280;22846;42.654;23.314;2023-06-26T06:37:43;94324.75;;;28.07;53.25
31337;BME280;22846;42.654;23.314;2023-06-26T06:40:12;94317.28;;;28.08;53.46
31337;BME280;22846;42.654;23.314;2023-06-26T06:42:37;94326.28;;;28.08;53.32
31337;BME280;22846;42.654;23.314;2023-06-26T06:45:03;94316.03;;;28.09;53.38
31337;BME280;22846;42.654;23.314;2023-06-26T06:47:29;94317.56;;;28.10;53.28
31337;BME280;22846;42.654;23.314;2023-06-26T06:49:55;94319.84;;;28.11;53.43
31337;BME280;22846;42.654;23.314;2023-06-26T06:52:21;94323.34;;;28.12;53.41
31337;BME280;22846;42.654;23.314;2023-06-26T06:54:54;94322.59;;;28.11;53.35
31337;BME280;22846;42.654;23.314;2023-06-26T06:57:20;94314.38;;;28.11;53.37
31337;BME280;22846;42.654;23.314;2023-06-26T06:59:46;94316.63;;;28.13;53.39
31337;BME280;22846;42.654;23.314;2023-06-26T07:02:13;94314.63;;;28.13;53.60
31337;BME280;22846;42.654;23.314;2023-06-26T07:04:38;94302.03;;;28.07;53.07
31337;BME280;22846;42.654;23.314;2023-06-26T07:07:04;94308.38;;;28.13;53.16
31337;BME280;22846;42.654;23.314;2023-06-26T07:09:29;94311.88;;;28.13;53.02
31337;BME280;22846;42.654;23.314;2023-06-26T07:11:54;94312.19;;;28.15;53.46
31337;BME280;22846;42.654;23.314;2023-06-26T07:14:21;94312.19;;;28.15;53.52
31337;BME280;22846;42.654;23.314;2023-06-26T07:16:46;94301.97;;;28.16;53.32
31337;BME280;22846;42.654;23.314;2023-06-26T07:19:12;94306.97;;;28.17;53.09
31337;BME280;22846;42.654;23.314;2023-06-26T07:21:37;94306.50;;;28.18;53.09
31337;BME280;22846;42.654;23.314;2023-06-26T07:24:02;94307.28;;;28.19;53.17
31337;BME280;22846;42.654;23.314;2023-06-26T07:26:28;94308.03;;;28.19;53.31
31337;BME280;22846;42.654;23.314;2023-06-26T07:28:53;94304.06;;;28.20;52.91
31337;BME280;22846;42.654;23.314;2023-06-26T07:31:21;94306.34;;;28.22;53.19
31337;BME280;22846;42.654;23.314;2023-06-26T07:33:47;94306.34;;;28.22;53.25
31337;BME280;22846;42.654;23.314;2023-06-26T07:36:12;94307.13;;;28.22;53.07
31337;BME280;22846;42.654;23.314;2023-06-26T07:38:38;94305.44;;;28.25;53.00
31337;BME280;22846;42.654;23.314;2023-06-26T07:41:03;94303.91;;;28.24;52.98
31337;BME280;22846;42.654;23.314;2023-06-26T07:43:28;94306.16;;;28.25;53.12
31337;BME280;22846;42.654;23.314;2023-06-26T07:45:54;94312.44;;;28.26;53.04
31337;BME280;22846;42.654;23.314;2023-06-26T07:48:19;94313.97;;;28.27;53.04
31337;BME280;22846;42.654;23.314;2023-06-26T07:50:44;94310.00;;;28.28;52.79
31337;BME280;22846;42.654;23.314;2023-06-26T07:53:10;94306.03;;;28.29;53.01
31337;BME280;22846;42.654;23.314;2023-06-26T07:55:35;94315.75;;;28.30;52.91
31337;BME280;22846;42.654;23.314;2023-06-26T07:58:01;94310.75;;;28.28;52.68
31337;BME280;22846;42.654;23.314;2023-06-26T08:00:26;94314.25;;;28.29;52.92
31337;BME280;22846;42.654;23.314;2023-06-26T08:02:52;94313.00;;;28.30;52.87
31337;BME280;22846;42.654;23.314;2023-06-26T08:05:17;94307.50;;;28.30;53.26
31337;BME280;22846;42.654;23.314;2023-06-26T08:07:43;94308.78;;;28.29;53.03
31337;BME280;22846;42.654;23.314;2023-06-26T08:10:09;94313.31;;;28.32;53.07
31337;BME280;22846;42.654;23.314;2023-06-26T08:12:34;94315.59;;;28.33;52.96
31337;BME280;22846;42.654;23.314;2023-06-26T08:15:01;94304.59;;;28.33;52.80
31337;BME280;22846;42.654;23.314;2023-06-26T08:17:28;94312.84;;;28.33;53.26
31337;BME280;22846;42.654;23.314;2023-06-26T08:19:53;94306.09;;;28.34;53.07
31337;BME280;22846;42.654;23.314;2023-06-26T08:22:18;94309.63;;;28.35;52.78
31337;BME280;22846;42.654;23.314;2023-06-26T08:24:44;94303.66;;;28.36;52.76
31337;BME280;22846;42.654;23.314;2023-06-26T08:27:09;94311.16;;;28.36;52.95
31337;BME280;22846;42.654;23.314;2023-06-26T08:29:35;94317.38;;;28.36;52.88
31337;BME280;22846;42.654;23.314;2023-06-26T08:32:00;94312.66;;;28.37;53.27
31337;BME280;22846;42.654;23.314;2023-06-26T08:34:27;94310.66;;;28.37;52.71
31337;BME280;22846;42.654;23.314;2023-06-26T08:36:52;94307.91;;;28.37;52.93
31337;BME280;22846;42.654;23.314;2023-06-26T08:39:18;94311.44;;;28.38;52.90
31337;BME280;22846;42.654;23.314;2023-06-26T08:41:44;94312.66;;;28.37;52.88
31337;BME280;22846;42.654;23.314;2023-06-26T08:44:09;94314.19;;;28.38;52.89
31337;BME280;22846;42.654;23.314;2023-06-26T08:46:36;94312.19;;;28.38;52.78
31337;BME280;22846;42.654;23.314;2023-06-26T08:49:07;94312.94;;;28.39;52.67
31337;BME280;22846;42.654;23.314;2023-06-26T08:51:35;94311.72;;;28.40;52.47
31337;BME280;22846;42.654;23.314;2023-06-26T08:54:06;94308.97;;;28.40;52.67
31337;BME280;22846;42.654;23.314;2023-06-26T08:56:36;94307.44;;;28.39;52.67
31337;BME280;22846;42.654;23.314;2023-06-26T08:59:03;94305.94;;;28.38;52.71
31337;BME280;22846;42.654;23.314;2023-06-26T09:01:30;94306.22;;;28.40;52.65
31337;BME280;22846;42.654;23.314;2023-06-26T09:03:56;94304.97;;;28.41;52.55
31337;BME280;22846;42.654;23.314;2023-06-26T09:06:22;94303.00;;;28.41;52.51
31337;BME280;22846;42.654;23.314;2023-06-26T09:08:47;94302.25;;;28.41;52.58
31337;BME280;22846;42.654;23.314;2023-06-26T09:11:13;94303.00;;;28.41;52.55
31337;BME280;22846;42.654;23.314;2023-06-26T09:13:39;94305.75;;;28.41;52.56
31337;BME280;22846;42.654;23.314;2023-06-26T09:16:08;94302.25;;;28.41;52.29
31337;BME280;22846;42.654;23.314;2023-06-26T09:18:33;94303.00;;;28.41;52.39
31337;BME280;22846;42.654;23.314;2023-06-26T09:20:59;94308.03;;;28.43;52.14
31337;BME280;22846;42.654;23.314;2023-06-26T09:23:25;94301.75;;;28.42;52.18
31337;BME280;22846;42.654;23.314;2023-06-26T09:25:51;94305.75;;;28.41;52.45
31337;BME280;22846;42.654;23.314;2023-06-26T09:28:17;94306.81;;;28.44;52.47
31337;BME280;22846;42.654;23.314;2023-06-26T09:30:44;94305.56;;;28.45;52.35
31337;BME280;22846;42.654;23.314;2023-06-26T09:33:20;94305.56;;;28.45;52.62
31337;BME280;22846;42.654;23.314;2023-06-26T09:35:46;94296.09;;;28.46;52.57
31337;BME280;22846;42.654;23.314;2023-06-26T09:38:13;94306.31;;;28.45;52.51
31337;BME280;22846;42.654;23.314;2023-06-26T09:40:39;94293.34;;;28.46;51.98
31337;BME280;22846;42.654;23.314;2023-06-26T09:43:05;94284.34;;;28.45;52.19
31337;BME280;22846;42.654;23.314;2023-06-26T09:45:32;94294.09;;;28.46;52.42
31337;BME280;22846;42.654;23.314;2023-06-26T09:48:02;94307.84;;;28.46;52.40
31337;BME280;22846;42.654;23.314;2023-06-26T09:50:28;94305.09;;;28.46;52.43
31337;BME280;22846;42.654;23.314;2023-06-26T09:52:55;94294.75;;;28.41;52.50
31337;BME280;22846;42.654;23.314;2023-06-26T09:55:20;94304.63;;;28.48;52.47
31337;BME280;22846;42.654;23.314;2023-06-26T09:57:51;94288.13;;;28.48;52.52
31337;BME280;22846;42.654;23.314;2023-06-26T10:00:17;94286.34;;;28.45;52.18
31337;BME280;22846;42.654;23.314;2023-06-26T10:02:44;94294.41;;;28.48;52.08
31337;BME280;22846;42.654;23.314;2023-06-26T10:05:09;94303.09;;;28.47;52.25
31337;BME280;22846;42.654;23.314;2023-06-26T10:07:35;94298.19;;;28.51;52.40
31337;BME280;22846;42.654;23.314;2023-06-26T10:10:02;94284.50;;;28.42;52.32
31337;BME280;22846;42.654;23.314;2023-06-26T10:12:30;94289.19;;;28.50;52.38
31337;BME280;22846;42.654;23.314;2023-06-26T10:14:57;94289.94;;;28.51;52.05
31337;BME280;22846;42.654;23.314;2023-06-26T10:17:25;94284.44;;;28.51;51.86
31337;BME280;22846;42.654;23.314;2023-06-26T10:19:53;94288.72;;;28.52;52.16
31337;BME280;22846;42.654;23.314;2023-06-26T10:22:25;94291.94;;;28.50;51.99
31337;BME280;22846;42.654;23.314;2023-06-26T10:24:55;94285.97;;;28.52;52.01
31337;BME280;22846;42.654;23.314;2023-06-26T10:27:24;94285.19;;;28.51;51.99
31337;BME280;22846;42.654;23.314;2023-06-26T10:29:55;94290.69;;;28.51;51.86
31337;BME280;22846;42.654;23.314;2023-06-26T10:32:25;94296.97;;;28.52;52.00
31337;BME280;22846;42.654;23.314;2023-06-26T10:34:52;94284.63;;;28.47;51.78
31337;BME280;22846;42.654;23.314;2023-06-26T10:37:18;94298.47;;;28.53;51.97
31337;BME280;22846;42.654;23.314;2023-06-26T10:39:52;94294.97;;;28.52;52.14
31337;BME280;22846;42.654;23.314;2023-06-26T10:42:34;94298.47;;;28.53;52.28
31337;BME280;22846;42.654;23.314;2023-06-26T10:45:09;94291.47;;;28.52;52.48
31337;BME280;22846;42.654;23.314;2023-06-26T10:47:36;94289.19;;;28.50;52.24
31337;BME280;22846;42.654;23.314;2023-06-26T10:50:24;94296.97;;;28.52;52.46
31337;BME280;22846;42.654;23.314;2023-06-26T10:55:34;94283.22;;;28.52;52.10
31337;BME280;22846;42.654;23.314;2023-06-26T10:58:00;94285.19;;;28.51;51.92
31337;BME280;22846;42.654;23.314;2023-06-26T11:00:27;94286.72;;;28.52;52.21
31337;BME280;22846;42.654;23.314;2023-06-26T11:02:52;94276.47;;;28.53;52.30
31337;BME280;22846;42.654;23.314;2023-06-26T11:05:29;94274.97;;;28.52;52.36
31337;BME280;22846;42.654;23.314;2023-06-26T11:10:52;94278.94;;;28.51;52.11
31337;BME280;22846;42.654;23.314;2023-06-26T11:13:19;94285.97;;;28.52;51.73
31337;BME280;22846;42.654;23.314;2023-06-26T11:15:46;94285.97;;;28.52;52.00
31337;BME280;22846;42.654;23.314;2023-06-26T11:18:12;94272.22;;;28.52;51.96
31337;BME280;22846;42.654;23.314;2023-06-26T11:20:38;94267.19;;;28.50;51.85
31337;BME280;22846;42.654;23.314;2023-06-26T11:23:04;94277.22;;;28.53;51.85
31337;BME280;22846;42.654;23.314;2023-06-26T11:25:37;94277.22;;;28.53;51.81
31337;BME280;22846;42.654;23.314;2023-06-26T11:28:09;94270.50;;;28.54;51.54
31337;BME280;22846;42.654;23.314;2023-06-26T11:30:34;94269.94;;;28.50;51.58
31337;BME280;22846;42.654;23.314;2023-06-26T11:33:07;94267.47;;;28.52;51.64
31337;BME280;22846;42.654;23.314;2023-06-26T11:35:33;94272.63;;;28.59;51.73
31337;BME280;22846;42.654;23.314;2023-06-26T11:38:00;94279.78;;;28.57;51.60
31337;BME280;22846;42.654;23.314;2023-06-26T11:40:30;94282.28;;;28.55;51.78
31337;BME280;22846;42.654;23.314;2023-06-26T11:43:00;94278.00;;;28.54;51.52
31337;BME280;22846;42.654;23.314;2023-06-26T11:45:28;94278.75;;;28.54;51.66
31337;BME280;22846;42.654;23.314;2023-06-26T11:47:58;94277.22;;;28.53;52.02
31337;BME280;22846;42.654;23.314;2023-06-26T11:50:24;94267.75;;;28.54;51.66
31337;BME280;22846;42.654;23.314;2023-06-26T11:52:56;94264.25;;;28.54;51.90
31337;BME280;22846;42.654;23.314;2023-06-26T11:55:23;94268.53;;;28.55;51.68
31337;BME280;22846;42.654;23.314;2023-06-26T11:57:56;94272.50;;;28.54;51.68
31337;BME280;22846;42.654;23.314;2023-06-26T12:00:22;94266.03;;;28.57;51.81
31337;BME280;22846;42.654;23.314;2023-06-26T12:02:48;94263.03;;;28.55;51.54
31337;BME280;22846;42.654;23.314;2023-06-26T12:05:15;94267.56;;;28.58;51.68
31337;BME280;22846;42.654;23.314;2023-06-26T12:07:46;94259.31;;;28.58;51.70
31337;BME280;22846;42.654;23.314;2023-06-26T12:10:13;94245.19;;;28.50;51.58
31337;BME280;22846;42.654;23.314;2023-06-26T12:12:40;94261.63;;;28.59;51.61
31337;BME280;22846;42.654;23.314;2023-06-26T12:15:10;94264.38;;;28.59;51.63
31337;BME280;22846;42.654;23.314;2023-06-26T12:17:38;94259.59;;;28.60;51.52
31337;BME280;22846;42.654;23.314;2023-06-26T12:20:17;94249.00;;;28.53;51.08
31337;BME280;22846;42.654;23.314;2023-06-26T12:22:45;94248.22;;;28.52;51.30
31337;BME280;22846;42.654;23.314;2023-06-26T12:25:12;94262.66;;;28.62;51.24
31337;BME280;22846;42.654;23.314;2023-06-26T12:27:38;94254.41;;;28.62;51.41
31337;BME280;22846;42.654;23.314;2023-06-26T12:30:04;94257.91;;;28.62;51.03
31337;BME280;22846;42.654;23.314;2023-06-26T12:32:30;94264.16;;;28.63;51.23
31337;BME280;22846;42.654;23.314;2023-06-26T12:34:56;94262.16;;;28.63;51.42
31337;BME280;22846;42.654;23.314;2023-06-26T12:37:22;94260.94;;;28.64;51.58
31337;BME280;22846;42.654;23.314;2023-06-26T12:39:52;94259.41;;;28.63;51.56
31337;BME280;22846;42.654;23.314;2023-06-26T12:42:19;94269.19;;;28.64;51.35
31337;BME280;22846;42.654;23.314;2023-06-26T12:44:46;94265.69;;;28.64;51.08
31337;BME280;22846;42.654;23.314;2023-06-26T12:47:12;94260.19;;;28.64;51.26
31337;BME280;22846;42.654;23.314;2023-06-26T12:49:41;94256.97;;;28.65;51.26
31337;BME280;22846;42.654;23.314;2023-06-26T12:52:09;94261.69;;;28.65;51.11
31337;BME280;22846;42.654;23.314;2023-06-26T12:54:36;94261.69;;;28.65;51.35
31337;BME280;22846;42.654;23.314;2023-06-26T12:57:02;94251.94;;;28.64;51.47